Time;durP1;ratioP1;P1;durP2;ratioP2;P2;SDS_P1;SDS_P2;PMS_P1;PMS_P2;Temp;Humidity;BMP_temperature;BMP_pressure;BME280_temperature;BME280_humidity;BME280_pressure;Samples;Min_cycle;Max_cycle;Signal;HPM_P1;HPM_P2
2023/08/15 00:01:04;;;;;;;12.52;4.20;;;;;;;19.68;88.69;101113.69;5008807;28;20493;-68
2023/08/15 00:03:30;;;;;;;7.97;3.90;;;;;;;19.66;89.64;101113.00;5009629;28;20445;-68
2023/08/15 00:05:56;;;;;;;6.13;3.60;;;;;;;19.62;90.23;101107.78;5008164;28;20385;-67
2023/08/15 00:08:21;;;;;;;10.27;4.47;;;;;;;19.56;90.41;101102.03;5009324;28;20033;-68
2023/08/15 00:10:47;;;;;;;6.82;4.05;;;;;;;19.53;90.95;101096.84;5009810;28;20057;-67
2023/08/15 00:13:12;;;;;;;8.30;4.18;;;;;;;19.49;90.90;101087.13;5014546;28;20099;-68
2023/08/15 00:15:37;;;;;;;9.57;3.80;;;;;;;19.44;90.86;101084.00;5023143;28;20418;-68
2023/08/15 00:18:03;;;;;;;8.05;3.83;;;;;;;19.40;90.16;101086.25;5008791;28;20042;-68
2023/08/15 00:20:28;;;;;;;6.75;3.55;;;;;;;19.35;91.27;101083.97;5022211;28;20030;-67
2023/08/15 00:22:54;;;;;;;8.43;3.45;;;;;;;19.33;90.37;101080.50;5015964;28;20034;-69
2023/08/15 00:25:19;;;;;;;7.13;4.07;;;;;;;19.28;91.75;101082.03;5011633;28;20048;-68
2023/08/15 00:27:45;;;;;;;5.40;3.30;;;;;;;19.22;91.50;101091.81;5008311;28;20112;-68
2023/08/15 00:30:10;;;;;;;9.60;4.32;;;;;;;19.18;91.34;101098.69;5009439;28;20093;-73
2023/08/15 00:32:36;;;;;;;6.72;4.07;;;;;;;19.14;91.32;101105.53;5009095;28;20041;-67
2023/08/15 00:35:05;;;;;;;8.10;3.70;;;;;;;19.08;90.49;101111.72;5021665;28;20069;-67
2023/08/15 00:37:34;;;;;;;10.30;3.88;;;;;;;18.94;91.73;101109.53;5027167;28;20220;-69
2023/08/15 00:40:00;;;;;;;9.80;3.95;;;;;;;18.91;91.30;101113.44;5032157;28;20094;-69
2023/08/15 00:42:26;;;;;;;9.90;3.90;;;;;;;18.87;91.11;101117.53;5025872;28;20041;-67
2023/08/15 00:44:51;;;;;;;6.72;4.05;;;;;;;18.84;90.72;101113.22;5025715;28;20420;-67
2023/08/15 00:47:19;;;;;;;8.20;3.75;;;;;;;18.82;90.78;101118.00;5027654;28;20024;-68
2023/08/15 00:49:44;;;;;;;8.93;3.70;;;;;;;18.79;90.65;101111.94;5027059;28;20437;-69
2023/08/15 00:52:13;;;;;;;13.40;3.97;;;;;;;18.78;90.04;101119.34;5027094;28;20029;-67
2023/08/15 00:54:44;;;;;;;6.15;3.28;;;;;;;18.75;91.10;101124.34;5027179;28;20113;-69
2023/08/15 00:57:10;;;;;;;8.00;3.70;;;;;;;18.69;90.57;101130.47;5024044;28;20208;-69
2023/08/15 00:59:36;;;;;;;7.15;3.70;;;;;;;18.66;90.26;101128.00;5028061;28;20413;-67
2023/08/15 01:02:02;;;;;;;12.32;3.92;;;;;;;18.55;91.60;101140.97;5027673;28;20045;-68
2023/08/15 01:04:28;;;;;;;10.35;3.88;;;;;;;18.53;90.83;101126.50;5027917;28;20038;-69
2023/08/15 01:06:54;;;;;;;11.40;4.13;;;;;;;18.53;90.55;101120.97;5025420;28;20040;-68
2023/08/15 01:09:19;;;;;;;12.77;4.60;;;;;;;18.51;90.78;101119.38;5026378;28;20021;-68
2023/08/15 01:12:01;;;;;;;11.95;4.22;;;;;;;18.46;90.31;101113.47;5037461;28;20485;-68
2023/08/15 01:14:33;;;;;;;11.25;3.63;;;;;;;18.47;90.67;101107.84;5027058;28;20037;-67
2023/08/15 01:16:59;;;;;;;10.30;4.75;;;;;;;18.43;90.77;101108.31;5027428;28;20049;-68
2023/08/15 01:19:40;;;;;;;14.15;4.22;;;;;;;18.46;89.69;101107.97;5009157;28;20037;-69
2023/08/15 01:22:20;;;;;;;15.45;4.28;;;;;;;18.44;89.61;101110.88;5007629;28;20083;-69
2023/08/15 01:24:46;;;;;;;9.27;3.80;;;;;;;18.46;88.87;101108.81;5008334;28;20041;-67
2023/08/15 01:27:11;;;;;;;9.70;4.05;;;;;;;18.44;88.82;101115.53;5024356;28;20037;-69
2023/08/15 01:29:36;;;;;;;10.90;4.03;;;;;;;18.42;88.17;101110.19;5027838;28;20032;-67
2023/08/15 01:32:19;;;;;;;10.27;4.13;;;;;;;18.37;89.16;101115.28;5027528;28;20131;-68
2023/08/15 01:34:59;;;;;;;9.82;4.00;;;;;;;18.36;88.79;101110.78;5025964;28;20120;-68
2023/08/15 01:37:30;;;;;;;11.20;4.00;;;;;;;18.36;89.57;101119.06;5008045;28;20477;-67
2023/08/15 01:40:02;;;;;;;8.82;4.10;;;;;;;18.35;88.33;101136.63;5014360;28;20041;-68
2023/08/15 01:42:30;;;;;;;8.13;3.70;;;;;;;18.35;88.02;101139.38;5037068;28;20533;-68
2023/08/15 01:44:58;;;;;;;9.70;4.22;;;;;;;18.34;88.06;101145.91;5007327;28;20470;-69
2023/08/15 01:47:24;;;;;;;10.75;3.72;;;;;;;18.31;87.36;101144.31;5007412;28;20046;-69
2023/08/15 01:49:49;;;;;;;9.10;3.70;;;;;;;18.29;87.55;101149.13;5014753;28;20079;-68
2023/08/15 01:52:15;;;;;;;8.20;3.55;;;;;;;18.28;87.83;101152.03;5025897;28;20022;-69
2023/08/15 01:54:40;;;;;;;12.60;3.90;;;;;;;18.24;87.73;101150.59;5027907;28;20491;-71
2023/08/15 01:57:06;;;;;;;9.85;3.75;;;;;;;18.23;87.65;101160.75;5008722;28;20488;-67
2023/08/15 01:59:31;;;;;;;8.38;3.72;;;;;;;18.20;88.19;101158.31;5012241;28;20631;-68
2023/08/15 02:01:56;;;;;;;8.25;3.60;;;;;;;18.22;88.66;101166.41;5026903;28;20455;-68
2023/08/15 02:04:22;;;;;;;10.90;3.70;;;;;;;18.16;89.35;101167.03;5026137;28;20481;-68
2023/08/15 02:06:47;;;;;;;6.65;2.78;;;;;;;18.16;88.72;101173.41;5025810;28;20150;-68
2023/08/15 02:09:13;;;;;;;8.40;3.60;;;;;;;18.19;89.95;101172.25;5008402;28;20038;-67
2023/08/15 02:11:38;;;;;;;13.20;3.63;;;;;;;18.16;89.42;101173.41;5018583;28;20032;-68
2023/08/15 02:14:03;;;;;;;12.15;3.60;;;;;;;18.14;88.95;101175.44;5025611;28;20077;-68
2023/08/15 02:16:29;;;;;;;10.70;3.65;;;;;;;18.10;89.67;101185.03;5016793;28;20026;-68
2023/08/15 02:18:55;;;;;;;12.95;3.55;;;;;;;18.08;89.39;101189.81;5020343;28;20069;-69
2023/08/15 02:21:20;;;;;;;13.50;3.30;;;;;;;18.10;88.93;101194.16;5013347;28;20072;-68
2023/08/15 02:23:45;;;;;;;11.35;3.22;;;;;;;18.08;89.24;101200.81;5029162;28;20036;-67
2023/08/15 02:26:11;;;;;;;8.20;3.50;;;;;;;18.04;89.33;101208.50;5023429;28;20103;-70
2023/08/15 02:28:36;;;;;;;9.70;3.33;;;;;;;18.03;89.41;101200.41;5029746;28;20072;-67
2023/08/15 02:31:04;;;;;;;8.10;3.28;;;;;;;18.03;89.09;101189.38;5030628;28;20496;-69
2023/08/15 02:33:30;;;;;;;8.40;3.70;;;;;;;18.00;89.96;101196.09;5028122;28;20033;-67
2023/08/15 02:35:55;;;;;;;6.57;3.00;;;;;;;17.99;89.78;101202.59;5030594;28;20036;-68
2023/08/15 02:38:23;;;;;;;9.75;3.63;;;;;;;17.98;88.53;101209.13;5037046;28;20485;-66
2023/08/15 02:40:48;;;;;;;11.18;3.67;;;;;;;17.93;89.60;101200.44;5022246;28;20037;-67
2023/08/15 02:43:13;;;;;;;10.90;3.45;;;;;;;17.89;89.32;101203.66;5009992;28;20444;-69
2023/08/15 02:45:39;;;;;;;11.13;4.20;;;;;;;17.86;89.82;101191.06;5011504;28;20113;-69
2023/08/15 02:48:05;;;;;;;9.68;3.17;;;;;;;17.85;89.17;101192.91;5009795;28;20061;-67
2023/08/15 02:50:30;;;;;;;9.43;3.70;;;;;;;17.78;90.50;101175.28;4992855;28;20046;-69
2023/08/15 02:52:55;;;;;;;7.78;3.25;;;;;;;17.78;89.95;101183.53;5009512;28;20375;-67
2023/08/15 02:55:21;;;;;;;10.70;3.38;;;;;;;17.74;90.11;101190.38;5010449;28;20033;-68
2023/08/15 02:57:46;;;;;;;8.88;3.10;;;;;;;17.72;90.49;101196.97;5029344;28;20401;-67
2023/08/15 03:00:12;;;;;;;6.85;3.30;;;;;;;17.70;90.15;101188.88;5029214;28;20041;-68
2023/08/15 03:02:39;;;;;;;9.82;3.75;;;;;;;17.67;90.94;101191.06;5009263;28;20026;-67
2023/08/15 03:05:05;;;;;;;11.30;3.83;;;;;;;17.67;90.23;101182.81;5009108;28;20030;-68
2023/08/15 03:07:30;;;;;;;8.35;3.40;;;;;;;17.63;90.49;101186.91;5010127;28;20033;-69
2023/08/15 03:09:56;;;;;;;6.32;3.80;;;;;;;17.59;91.87;101191.81;5010156;28;20041;-69
2023/08/15 03:12:21;;;;;;;11.10;4.10;;;;;;;17.55;91.92;101194.00;5025989;28;20037;-67
2023/08/15 03:14:46;;;;;;;8.60;3.90;;;;;;;17.50;92.09;101188.06;5028091;28;20163;-68
2023/08/15 03:17:13;;;;;;;8.60;3.40;;;;;;;17.51;91.88;101191.69;5029372;28;20030;-69
2023/08/15 03:19:39;;;;;;;8.93;3.83;;;;;;;17.46;92.38;101177.50;5028933;28;20650;-68
2023/08/15 03:22:06;;;;;;;10.25;4.10;;;;;;;17.44;92.27;101193.28;5027748;28;20037;-68
2023/08/15 03:24:32;;;;;;;13.82;4.63;;;;;;;17.39;92.41;101190.97;5028348;28;20179;-67
2023/08/15 03:26:57;;;;;;;9.75;3.78;;;;;;;17.37;93.16;101186.66;5039163;28;20403;-68
2023/08/15 03:29:23;;;;;;;15.27;4.43;;;;;;;17.34;92.81;101188.66;5027733;28;20025;-68
2023/08/15 03:31:49;;;;;;;9.25;4.30;;;;;;;17.36;93.17;101184.91;5028050;28;20033;-67
2023/08/15 03:34:14;;;;;;;9.90;4.25;;;;;;;17.36;92.96;101187.66;5011698;28;20066;-67
2023/08/15 03:36:40;;;;;;;11.15;3.85;;;;;;;17.30;93.35;101191.88;5008573;28;20029;-67
2023/08/15 03:39:06;;;;;;;8.80;4.00;;;;;;;17.23;93.58;101194.31;5010641;28;20038;-67
2023/08/15 03:41:31;;;;;;;11.82;4.90;;;;;;;17.22;93.21;101199.97;5009725;28;20053;-68
2023/08/15 03:43:58;;;;;;;7.93;4.63;;;;;;;17.16;94.85;101195.94;5016398;28;20087;-69
2023/08/15 03:46:23;;;;;;;14.48;4.72;;;;;;;17.08;94.87;101196.66;5014329;28;20412;-68
2023/08/15 03:48:49;;;;;;;12.60;4.68;;;;;;;17.02;95.66;101207.34;5008158;28;20421;-68
2023/08/15 03:51:14;;;;;;;11.10;4.20;;;;;;;16.98;95.37;101205.91;5008022;28;20061;-68
2023/08/15 03:53:40;;;;;;;7.75;3.88;;;;;;;16.97;94.56;101209.66;5021518;28;20136;-67
2023/08/15 03:56:05;;;;;;;11.80;3.85;;;;;;;16.93;95.28;101214.59;5024739;28;20462;-68
2023/08/15 03:58:31;;;;;;;8.13;4.13;;;;;;;16.90;95.45;101217.63;5027683;28;20140;-68
2023/08/15 04:00:56;;;;;;;11.25;4.95;;;;;;;16.89;95.01;101212.28;5028909;28;20123;-68
2023/08/15 04:03:22;;;;;;;11.40;3.88;;;;;;;16.85;94.85;101210.81;5026548;28;20044;-68
2023/08/15 04:05:48;;;;;;;11.88;4.20;;;;;;;16.80;94.56;101214.88;5028969;28;20036;-67
2023/08/15 04:08:15;;;;;;;8.40;4.43;;;;;;;16.76;95.19;101216.16;5025503;28;20262;-69
2023/08/15 04:10:44;;;;;;;11.63;5.00;;;;;;;16.72;95.65;101200.97;5011072;28;20515;-71
2023/08/15 04:13:10;;;;;;;11.35;4.82;;;;;;;16.71;95.94;101212.94;5013120;28;20033;-67
2023/08/15 04:15:36;;;;;;;10.05;5.40;;;;;;;16.69;96.07;101208.56;5027080;28;20022;-68
2023/08/15 04:18:09;;;;;;;15.52;5.60;;;;;;;16.69;96.41;101203.09;5028311;28;20068;-67
2023/08/15 04:20:41;;;;;;;;;;;;;;;16.74;94.17;101196.22;5029180;28;20037;-68
2023/08/15 04:23:08;;;;;;;15.10;5.75;;;;;;;16.65;96.50;101196.16;5027828;28;20373;-68
2023/08/15 04:25:38;;;;;;;13.70;5.35;;;;;;;16.55;97.87;101190.63;5024599;28;20124;-68
2023/08/15 04:28:04;;;;;;;11.95;4.88;;;;;;;16.53;98.06;101193.50;4990706;28;20033;-69
2023/08/15 04:30:31;;;;;;;10.45;5.00;;;;;;;16.53;97.53;101203.63;5010886;28;20480;-68
2023/08/15 04:33:01;;;;;;;13.38;5.22;;;;;;;16.49;99.29;101205.78;5026697;28;20057;-68
2023/08/15 04:35:28;;;;;;;15.30;5.47;;;;;;;16.50;98.18;101206.66;5026907;28;20492;-67
2023/08/15 04:37:54;;;;;;;12.40;5.40;;;;;;;16.48;99.05;101217.78;5025754;28;20084;-68
2023/08/15 04:40:31;;;;;;;17.20;6.25;;;;;;;16.50;99.14;101217.66;5026468;28;20029;-70
2023/08/15 04:42:56;;;;;;;13.38;5.32;;;;;;;16.49;99.19;101211.28;5023073;28;20120;-68
2023/08/15 04:45:22;;;;;;;12.52;5.18;;;;;;;16.51;99.30;101230.38;5006260;28;20061;-67
2023/08/15 04:47:47;;;;;;;13.82;5.90;;;;;;;16.51;99.76;101224.91;5007810;28;20112;-67
2023/08/15 04:50:13;;;;;;;12.15;5.30;;;;;;;16.53;99.30;101222.88;5008524;28;20041;-67
2023/08/15 04:52:38;;;;;;;11.50;5.20;;;;;;;16.54;98.57;101227.34;5007431;28;20064;-68
2023/08/15 04:55:04;;;;;;;12.73;5.60;;;;;;;16.54;100.00;101238.31;5008499;28;20033;-69
2023/08/15 04:57:29;;;;;;;18.95;6.07;;;;;;;16.54;99.91;101246.56;5023328;28;20400;-68
2023/08/15 04:59:55;;;;;;;16.17;5.88;;;;;;;16.54;99.67;101250.19;5025740;28;20477;-68
2023/08/15 05:02:20;;;;;;;14.27;5.57;;;;;;;16.53;100.00;101258.56;5025670;28;20552;-68
2023/08/15 05:04:45;;;;;;;9.10;5.32;;;;;;;16.54;99.99;101269.41;5026091;28;20033;-68
2023/08/15 05:07:11;;;;;;;12.55;5.07;;;;;;;16.54;99.68;101268.53;5019562;28;20026;-70
2023/08/15 05:09:37;;;;;;;18.58;5.43;;;;;;;16.55;99.96;101271.19;5007464;28;20547;-70
2023/08/15 05:12:03;;;;;;;12.85;5.78;;;;;;;16.55;100.00;101281.25;5008074;28;20026;-69
2023/08/15 05:14:28;;;;;;;12.25;5.65;;;;;;;16.56;100.00;101280.28;5022654;28;20083;-67
2023/08/15 05:16:54;;;;;;;10.55;5.30;;;;;;;16.56;100.00;101286.66;5024893;28;20037;-68
2023/08/15 05:19:19;;;;;;;13.75;5.47;;;;;;;16.58;100.00;101291.97;5015308;28;20477;-68
2023/08/15 05:21:45;;;;;;;12.75;4.95;;;;;;;16.60;100.00;101292.72;5007317;28;20466;-69
2023/08/15 05:24:10;;;;;;;16.00;5.75;;;;;;;16.62;100.00;101293.44;5042993;28;20547;-70
2023/08/15 05:26:36;;;;;;;11.73;5.32;;;;;;;16.65;100.00;101297.81;5025329;28;20028;-69
2023/08/15 05:29:03;;;;;;;13.80;6.07;;;;;;;16.63;100.00;101300.69;5026006;28;20493;-68
2023/08/15 05:31:28;;;;;;;11.45;5.53;;;;;;;16.65;100.00;101303.31;5026884;28;20116;-69
2023/08/15 05:33:54;;;;;;;15.13;5.65;;;;;;;16.68;100.00;101308.50;5026276;28;20076;-68
2023/08/15 05:36:20;;;;;;;17.85;5.45;;;;;;;16.71;100.00;101306.34;5025326;28;20021;-68
2023/08/15 05:38:46;;;;;;;8.80;4.72;;;;;;;16.75;100.00;101305.09;5023740;28;20525;-68
2023/08/15 05:41:12;;;;;;;15.15;6.05;;;;;;;16.77;100.00;101303.06;5015296;28;20124;-68
2023/08/15 05:43:37;;;;;;;13.40;5.78;;;;;;;16.81;100.00;101303.66;5013128;28;20143;-68
2023/08/15 05:46:03;;;;;;;11.93;5.93;;;;;;;16.83;100.00;101296.13;5020505;28;20081;-69
2023/08/15 05:48:29;;;;;;;11.10;5.55;;;;;;;16.82;100.00;101288.91;5007337;28;20033;-68
2023/08/15 05:50:55;;;;;;;13.55;5.32;;;;;;;16.87;100.00;101302.22;5007347;28;20025;-68
2023/08/15 05:53:20;;;;;;;19.90;5.80;;;;;;;16.91;99.83;101300.94;5007961;28;20030;-68
2023/08/15 05:55:46;;;;;;;12.25;5.40;;;;;;;16.97;100.00;101308.59;5021379;28;20049;-70
2023/08/15 05:58:11;;;;;;;13.20;6.15;;;;;;;17.00;100.00;101311.09;5008980;28;20049;-68
2023/08/15 06:00:38;;;;;;;17.65;6.15;;;;;;;17.05;100.00;101322.53;5012348;28;20076;-67
2023/08/15 06:03:03;;;;;;;12.75;5.80;;;;;;;17.08;99.82;101325.88;5011173;28;20061;-68
2023/08/15 06:05:31;;;;;;;14.60;5.78;;;;;;;17.14;99.67;101324.44;5011578;28;20073;-68
2023/08/15 06:07:57;;;;;;;13.95;5.00;;;;;;;17.18;99.77;101338.75;5021817;28;20045;-68
2023/08/15 06:10:23;;;;;;;12.27;5.18;;;;;;;17.19;99.71;101333.13;5027693;28;20022;-68
2023/08/15 06:12:49;;;;;;;11.70;5.40;;;;;;;17.22;99.46;101327.34;5028820;28;20045;-68
2023/08/15 06:15:14;;;;;;;16.23;5.80;;;;;;;17.23;99.80;101339.22;5030934;28;20110;-68
2023/08/15 06:17:41;;;;;;;13.05;5.72;;;;;;;17.25;100.00;101350.91;5031219;28;20025;-68
2023/08/15 06:20:07;;;;;;;15.63;5.75;;;;;;;17.26;100.00;101356.31;5023378;28;20037;-70
2023/08/15 06:22:33;;;;;;;11.40;5.53;;;;;;;17.41;100.00;101354.00;5011276;28;20030;-68
2023/08/15 06:24:58;;;;;;;18.35;6.10;;;;;;;17.51;99.62;101354.00;5011166;28;20085;-68
2023/08/15 06:27:23;;;;;;;13.20;5.05;;;;;;;17.53;99.49;101350.09;5014207;28;20041;-68
2023/08/15 06:29:49;;;;;;;11.63;5.38;;;;;;;17.57;99.53;101361.66;5010851;28;20092;-68
2023/08/15 06:32:28;;;;;;;12.65;5.25;;;;;;;17.58;99.61;101355.19;5010946;28;20116;-68
2023/08/15 06:34:54;;;;;;;12.07;5.13;;;;;;;17.62;100.00;101362.09;5011099;28;20075;-68
2023/08/15 06:37:19;;;;;;;15.23;5.43;;;;;;;17.66;99.49;101358.06;5010866;28;20529;-68
2023/08/15 06:39:45;;;;;;;13.00;4.88;;;;;;;17.72;97.97;101354.75;5011274;28;20474;-68
2023/08/15 06:42:13;;;;;;;14.40;5.40;;;;;;;17.77;99.20;101348.84;5011461;28;20504;-70
2023/08/15 06:44:42;;;;;;;13.43;5.47;;;;;;;17.83;99.53;101364.75;5010882;28;20436;-69
2023/08/15 06:47:07;;;;;;;9.52;4.75;;;;;;;17.85;100.00;101360.84;5009712;28;20041;-68
2023/08/15 06:49:33;;;;;;;14.15;5.30;;;;;;;17.89;99.21;101364.16;5010672;28;20041;-69
2023/08/15 06:51:58;;;;;;;14.65;5.45;;;;;;;17.94;98.93;101372.84;5010819;28;20041;-68
2023/08/15 06:54:24;;;;;;;13.75;5.18;;;;;;;17.99;97.93;101367.78;5009236;28;20029;-69
2023/08/15 06:56:49;;;;;;;13.88;5.05;;;;;;;18.04;98.20;101373.72;5010682;28;20036;-69
2023/08/15 06:59:14;;;;;;;12.95;4.68;;;;;;;18.09;97.03;101365.00;5010039;28;20490;-68
2023/08/15 07:01:40;;;;;;;13.77;4.68;;;;;;;18.16;97.77;101362.56;5020026;28;20473;-70
2023/08/15 07:04:06;;;;;;;14.40;6.00;;;;;;;18.23;97.89;101364.59;5028854;28;20051;-68
2023/08/15 07:06:32;;;;;;;17.17;5.47;;;;;;;18.31;96.93;101369.31;5030123;28;20489;-68
2023/08/15 07:08:58;;;;;;;13.73;5.53;;;;;;;18.39;96.53;101366.69;5028729;28;20045;-69
2023/08/15 07:11:24;;;;;;;13.52;6.05;;;;;;;18.45;97.30;101373.50;5024655;28;20033;-68
2023/08/15 07:13:49;;;;;;;12.23;5.50;;;;;;;18.51;95.37;101373.78;5029735;28;20041;-69
2023/08/15 07:16:15;;;;;;;14.50;5.53;;;;;;;18.54;97.01;101364.34;5029297;28;20064;-69
2023/08/15 07:18:40;;;;;;;10.70;5.05;;;;;;;18.57;96.85;101370.41;5030620;28;20025;-71
2023/08/15 07:21:05;;;;;;;15.63;5.00;;;;;;;18.66;97.48;101376.06;5028522;28;20561;-67
2023/08/15 07:23:31;;;;;;;17.52;5.00;;;;;;;18.72;95.24;101381.00;5013449;28;20048;-68
2023/08/15 07:25:56;;;;;;;17.20;5.75;;;;;;;18.78;95.99;101389.50;5012025;28;20332;-67
2023/08/15 07:28:22;;;;;;;13.77;5.18;;;;;;;18.86;95.83;101395.16;5008310;28;20029;-68
2023/08/15 07:30:48;;;;;;;14.75;5.22;;;;;;;18.97;96.16;101399.59;5022133;28;20037;-68
2023/08/15 07:33:14;;;;;;;15.88;5.22;;;;;;;19.05;94.93;101394.19;5029257;28;20484;-68
2023/08/15 07:35:40;;;;;;;17.73;4.88;;;;;;;19.16;96.83;101390.34;5020661;28;20055;-70
2023/08/15 07:38:06;;;;;;;12.13;4.60;;;;;;;19.31;96.10;101396.22;5010144;28;20604;-67
2023/08/15 07:40:32;;;;;;;13.43;4.28;;;;;;;19.49;93.68;101404.53;5012682;28;20041;-68
2023/08/15 07:42:57;;;;;;;11.38;4.18;;;;;;;19.59;93.89;101402.59;5028612;28;20546;-70
2023/08/15 07:45:23;;;;;;;15.05;4.45;;;;;;;19.67;92.29;101405.44;5009616;28;20058;-68
2023/08/15 07:47:52;;;;;;;10.30;4.38;;;;;;;19.74;91.16;101398.28;5009612;28;20508;-68
2023/08/15 07:50:21;;;;;;;13.38;4.50;;;;;;;19.75;89.65;101401.91;5008509;28;20081;-68
2023/08/15 07:52:47;;;;;;;12.55;4.22;;;;;;;19.71;90.20;101400.47;5009368;28;20022;-67
2023/08/15 07:55:12;;;;;;;11.50;4.32;;;;;;;19.69;91.87;101408.06;5010108;28;20472;-74
2023/08/15 07:57:38;;;;;;;13.10;4.18;;;;;;;19.77;91.96;101409.03;5009386;28;20033;-73
2023/08/15 08:00:04;;;;;;;12.77;3.60;;;;;;;19.94;90.09;101406.41;5009250;28;20026;-74
2023/08/15 08:02:37;;;;;;;12.50;3.70;;;;;;;20.08;91.17;101408.59;5008479;28;20041;-73
2023/08/15 08:05:06;;;;;;;11.23;3.75;;;;;;;20.27;90.03;101415.84;5009417;28;20445;-72
2023/08/15 08:07:32;;;;;;;9.52;3.60;;;;;;;20.42;88.52;101418.88;5009372;28;20030;-72
2023/08/15 08:09:59;;;;;;;13.48;4.05;;;;;;;;;;5009303;28;20045;-73
2023/08/15 08:12:25;;;;;;;13.65;3.70;;;;;;;20.68;86.62;101414.28;5026598;28;20041;-73
2023/08/15 08:14:50;;;;;;;9.07;3.17;;;;;;;21.04;87.09;101408.59;5028778;28;20026;-74
2023/08/15 08:17:15;;;;;;;11.65;3.83;;;;;;;21.37;84.98;101406.88;5028594;28;20116;-72
2023/08/15 08:19:41;;;;;;;16.65;3.80;;;;;;;21.71;84.84;101414.22;5027038;28;20373;-73
2023/08/15 08:22:06;;;;;;;12.40;3.10;;;;;;;21.80;83.43;101407.66;5023409;28;20490;-73
2023/08/15 08:24:32;;;;;;;9.95;3.83;;;;;;;22.18;82.86;101411.69;5008986;28;20033;-74
2023/08/15 08:26:57;;;;;;;9.13;3.20;;;;;;;22.39;79.80;101413.97;5019800;28;20045;-73
2023/08/15 08:29:23;;;;;;;9.02;3.20;;;;;;;22.65;79.58;101419.28;5028313;28;20068;-74
2023/08/15 08:31:48;;;;;;;10.65;3.00;;;;;;;22.80;78.92;101417.53;5019547;28;20065;-73
2023/08/15 08:34:13;;;;;;;10.07;3.63;;;;;;;22.92;75.08;101416.13;5007432;28;20040;-73
2023/08/15 08:36:42;;;;;;;13.05;3.22;;;;;;;23.02;76.35;101415.06;5007829;28;20062;-73
2023/08/15 08:39:08;;;;;;;10.80;3.03;;;;;;;22.98;77.48;101417.31;5015048;28;20163;-74
2023/08/15 08:41:38;;;;;;;12.18;3.42;;;;;;;22.98;76.78;101414.53;5025325;28;20053;-73
2023/08/15 08:44:04;;;;;;;9.57;2.67;;;;;;;23.02;76.06;101421.47;5028024;28;20037;-72
2023/08/15 08:46:30;;;;;;;8.90;3.00;;;;;;;22.96;76.47;101424.97;5027520;28;20040;-71
2023/08/15 08:48:57;;;;;;;9.60;3.40;;;;;;;22.98;76.71;101420.09;5028324;28;20034;-74
2023/08/15 08:51:24;;;;;;;9.00;2.88;;;;;;;23.04;74.52;101416.63;5026801;28;20116;-72
2023/08/15 08:53:50;;;;;;;9.43;3.45;;;;;;;23.05;75.29;101421.13;5028097;28;20066;-72
2023/08/15 08:56:17;;;;;;;12.60;3.22;;;;;;;23.29;74.80;101416.53;5020698;28;20041;-74
2023/08/15 08:58:48;;;;;;;12.57;3.30;;;;;;;23.43;74.18;101424.94;5008251;28;20129;-72
2023/08/15 09:01:14;;;;;;;10.30;3.85;;;;;;;23.42;72.86;101434.34;5013351;28;20034;-73
2023/08/15 09:03:40;;;;;;;7.03;2.90;;;;;;;23.60;73.86;101427.66;5027502;28;20386;-73
2023/08/15 09:06:07;;;;;;;8.50;2.80;;;;;;;23.70;73.77;101433.00;5026632;28;20033;-71
2023/08/15 09:08:32;;;;;;;8.75;2.63;;;;;;;23.82;73.98;101435.16;5021930;28;20034;-73
2023/08/15 09:10:58;;;;;;;13.10;3.20;;;;;;;23.83;73.79;101438.84;5008367;28;20079;-71
2023/08/15 09:13:23;;;;;;;10.35;3.17;;;;;;;24.04;71.71;101436.25;5014917;28;20386;-74
2023/08/15 09:15:49;;;;;;;10.80;2.85;;;;;;;24.24;70.79;101438.53;5027730;28;20124;-72
2023/08/15 09:18:15;;;;;;;11.68;3.30;;;;;;;24.45;70.61;101440.66;5026547;28;20534;-72
2023/08/15 09:20:45;;;;;;;12.50;3.20;;;;;;;24.66;67.96;101444.41;5007265;28;20041;-70
2023/08/15 09:23:11;;;;;;;13.02;3.22;;;;;;;24.73;69.08;101441.75;5007998;28;20041;-69
2023/08/15 09:25:36;;;;;;;14.45;2.95;;;;;;;24.63;69.44;101444.81;5009012;28;20028;-72
2023/08/15 09:28:05;;;;;;;9.30;2.55;;;;;;;24.77;69.31;101451.47;5007251;28;20406;-73
2023/08/15 09:30:30;;;;;;;13.25;3.17;;;;;;;25.05;68.55;101450.81;5007810;28;20543;-74
2023/08/15 09:32:56;;;;;;;10.07;3.50;;;;;;;25.08;67.89;101451.31;5007540;28;20084;-73
2023/08/15 09:35:22;;;;;;;7.93;2.70;;;;;;;25.05;67.21;101453.59;5007598;28;20042;-72
2023/08/15 09:37:49;;;;;;;10.32;3.30;;;;;;;25.50;68.28;101454.47;5023996;28;20041;-74
2023/08/15 09:40:24;;;;;;;8.57;3.28;;;;;;;25.72;67.28;101453.47;5024700;28;20046;-73
2023/08/15 09:42:50;;;;;;;9.13;2.78;;;;;;;25.87;66.26;101448.75;5007268;28;20042;-73
2023/08/15 09:45:16;;;;;;;6.78;2.70;;;;;;;26.09;68.10;101449.63;5016576;28;20041;-73
2023/08/15 09:47:43;;;;;;;9.85;2.42;;;;;;;26.25;64.42;101456.00;5026919;28;20044;-72
2023/08/15 09:50:11;;;;;;;6.65;2.58;;;;;;;26.21;63.66;101458.34;5027910;28;20045;-72
2023/08/15 09:52:39;;;;;;;10.00;2.80;;;;;;;26.18;62.40;101462.38;5026848;28;20041;-72
2023/08/15 09:55:12;;;;;;;6.85;2.70;;;;;;;26.32;63.29;101466.19;5026702;28;20037;-71
2023/08/15 09:57:40;;;;;;;8.43;2.53;;;;;;;26.32;61.15;101454.16;5023411;28;20044;-74
2023/08/15 10:00:11;;;;;;;8.88;2.75;;;;;;;26.32;63.20;101457.81;5026456;28;20040;-71
2023/08/15 10:02:43;;;;;;;14.02;2.80;;;;;;;26.62;62.22;101466.03;5018195;28;20041;-72
2023/08/15 10:05:11;;;;;;;8.57;2.42;;;;;;;26.82;61.74;101471.81;5007817;28;20038;-70
2023/08/15 10:07:37;;;;;;;10.15;2.78;;;;;;;27.02;59.66;101475.59;5008334;28;20038;-73
2023/08/15 10:10:04;;;;;;;6.63;2.55;;;;;;;27.14;58.70;101474.00;5007305;28;20030;-73
2023/08/15 10:12:31;;;;;;;8.27;2.28;;;;;;;27.45;61.14;101487.50;5010188;28;20116;-72
2023/08/15 10:15:00;;;;;;;7.78;2.70;;;;;;;27.47;59.12;101481.72;5026954;28;20048;-71
2023/08/15 10:17:28;;;;;;;9.00;2.78;;;;;;;27.67;57.19;101482.66;5024667;28;20095;-72
2023/08/15 10:19:54;;;;;;;13.02;3.03;;;;;;;27.54;55.71;101481.75;5026982;28;20443;-73
2023/08/15 10:22:20;;;;;;;9.27;2.45;;;;;;;27.18;56.23;101478.09;5022767;28;20034;-73
2023/08/15 10:24:46;;;;;;;11.60;2.30;;;;;;;27.12;57.23;101478.91;5007199;28;20025;-73
2023/08/15 10:27:13;;;;;;;9.10;2.53;;;;;;;27.26;58.43;101479.00;5007408;28;20121;-71
2023/08/15 10:29:59;;;;;;;8.63;2.40;;;;;;;27.28;59.27;101488.03;5007487;28;20112;-72
2023/08/15 10:32:25;;;;;;;10.63;2.50;;;;;;;27.11;56.88;101482.78;5007218;28;20497;-73
2023/08/15 10:35:11;;;;;;;7.43;2.42;;;;;;;27.09;59.07;101490.53;5007171;28;20085;-70
2023/08/15 10:37:38;;;;;;;11.90;2.92;;;;;;;26.94;59.66;101490.56;5013740;28;20133;-74
2023/08/15 10:40:08;;;;;;;5.38;2.30;;;;;;;26.79;59.88;101495.41;5026534;28;20034;-73
2023/08/15 10:43:01;;;;;;;8.45;2.35;;;;;;;26.89;60.71;101493.13;5007403;28;20050;-73
2023/08/15 10:46:06;;;;;;;11.85;2.83;;;;;;;27.37;60.84;101492.38;5010675;28;20041;-72
2023/08/15 10:48:44;;;;;;;8.50;2.38;;;;;;;27.77;59.67;101487.91;4988175;28;20074;-72
2023/08/15 10:51:16;;;;;;;8.73;2.50;;;;;;;28.37;56.37;101493.72;4969940;28;20054;-71
2023/08/15 10:53:41;;;;;;;11.30;2.28;;;;;;;28.94;54.38;101492.22;5000599;28;20084;-71
2023/08/15 10:56:09;;;;;;;8.95;2.33;;;;;;;29.12;51.11;101491.59;5024994;28;20053;-72
2023/08/15 10:58:34;;;;;;;6.80;2.25;;;;;;;29.22;51.16;101490.03;5010298;28;20058;-72
2023/08/15 11:01:00;;;;;;;7.70;2.47;;;;;;;29.10;51.61;101485.31;5010242;28;20038;-71
2023/08/15 11:03:26;;;;;;;7.28;2.40;;;;;;;29.21;50.02;101481.88;5010685;28;20129;-72
2023/08/15 11:05:51;;;;;;;8.35;2.40;;;;;;;29.34;49.65;101484.66;5010434;28;20041;-73
2023/08/15 11:08:20;;;;;;;6.28;1.95;;;;;;;29.44;51.76;101493.44;5010618;28;20374;-72
2023/08/15 11:10:50;;;;;;;8.70;2.42;;;;;;;29.64;52.06;101490.59;5010957;28;20442;-71
2023/08/15 11:13:16;;;;;;;15.25;2.47;;;;;;;29.93;49.91;101486.38;5016061;28;20037;-71
2023/08/15 11:15:44;;;;;;;7.85;2.00;;;;;;;30.24;51.02;101479.97;5016636;28;20046;-73
2023/08/15 11:18:09;;;;;;;7.75;2.17;;;;;;;30.51;51.40;101479.78;5010399;28;20485;-70